Mare I — 3FIH6 — position and weather

sailwx.info

Track history (hours):
 
Tides and Currents Weather Stations Pressure Air Temp Water Temp Dewpoint Dewpoint Depression Visibility Wind Speed Wind Dir Waves Ship Positions

Mare I

Last reported at 2018-Apr-23 07:49 UTC. Time now 2018-Apr-24 16:28 UTC.
Position N 37°39' E 023°43'.

Length 111 m; draft 7.2 m.

MMSI: 357387000.

Date/timePositionNaut miles runAvg speedWind from/ knotsBaromVisibWave heightAir tempDewpointWater temp
2018-Apr-23 07:49N 37°39' E 023°43'4 9.7
2018-Apr-23 07:26N 37°43' E 023°41'4 9.7
2018-Apr-23 07:00N 37°47' E 023°38'5 9.6
2018-Apr-23 06:30N 37°51' E 023°36'4 7.2
2018-Apr-23 05:59N 37°54' E 023°33'0 0.1
2018-Apr-23 05:29N 37°54' E 023°33'0 0.0
2018-Apr-23 04:59N 37°54' E 023°33'0 0.0
2018-Apr-23 04:29N 37°54' E 023°33'0 0.0
2018-Apr-23 03:59N 37°54' E 023°33'0 0.2
2018-Apr-23 03:29N 37°54' E 023°33'0 0.0
2018-Apr-23 02:59N 37°54' E 023°33'0 0.1
2018-Apr-23 02:29N 37°54' E 023°33'0 0.0
2018-Apr-23 01:59N 37°54' E 023°33'0 0.1
2018-Apr-23 01:29N 37°54' E 023°33'0 0.0
2018-Apr-23 00:59N 37°54' E 023°33'0 0.1
2018-Apr-23 00:29N 37°54' E 023°33'0 0.0
2018-Apr-22 23:59N 37°54' E 023°33'0 0.1
2018-Apr-22 23:29N 37°54' E 023°33'0 0.1
2018-Apr-22 22:59N 37°54' E 023°33'0 0.0
2018-Apr-22 22:29N 37°54' E 023°33'0 0.1
2018-Apr-22 21:59N 37°54' E 023°33'0 0.2
2018-Apr-22 21:29N 37°54' E 023°33'0 0.0
2018-Apr-22 20:59N 37°54' E 023°33'0 0.0
2018-Apr-22 20:29N 37°54' E 023°33'0 0.1
2018-Apr-22 19:56N 37°54' E 023°33'0 0.0
2018-Apr-22 19:29N 37°54' E 023°33'0 0.1
2018-Apr-22 18:59N 37°54' E 023°33'0 0.0
2018-Apr-22 18:29N 37°54' E 023°33'0 0.0
2018-Apr-22 17:59N 37°54' E 023°33'0 0.1
2018-Apr-22 17:29N 37°54' E 023°33'0 0.0
2018-Apr-22 16:59N 37°54' E 023°33'0 0.0
2018-Apr-22 16:29N 37°54' E 023°33'0 0.0
2018-Apr-22 15:59N 37°54' E 023°33'0 0.0
2018-Apr-22 15:29N 37°54' E 023°33'0 0.0
2018-Apr-22 14:59N 37°54' E 023°33'0 0.0
2018-Apr-22 14:29N 37°54' E 023°33'0 0.0
2018-Apr-22 13:59N 37°54' E 023°33'0 0.0
2018-Apr-22 13:29N 37°54' E 023°33'0 0.0
2018-Apr-22 12:59N 37°54' E 023°33'0 0.1
2018-Apr-22 12:29N 37°54' E 023°33'0 0.0
2018-Apr-22 11:59N 37°54' E 023°33'0 0.2
2018-Apr-22 11:29N 37°54' E 023°33'1 1.7
2018-Apr-22 11:00N 37°54' E 023°34'4 7.4
2018-Apr-22 10:30N 37°51' E 023°37'5 9.4
2018-Apr-22 10:00N 37°48' E 023°41'8 9.5
2018-Apr-22 09:09N 37°40' E 023°46'3 9.3
2018-Apr-22 08:50N 37°38' E 023°49'  
Track history (hours):
 
Tides and Currents Weather Stations Pressure Air Temp Water Temp Dewpoint Dewpoint Depression Visibility Wind Speed Wind Dir Waves Ship Positions

Mare I

Last reported at 2018-Apr-23 07:49 UTC. Time now 2018-Apr-24 16:28 UTC.
Position N 37°39' E 023°43'.

Length 111 m; draft 7.2 m.

MMSI: 357387000.

Date/timePositionNaut miles runAvg speedWind from/ knotsBaromVisibWave heightAir tempDewpointWater temp
2018-Apr-23 07:49N 37°39' E 023°43'4 9.7
2018-Apr-23 07:26N 37°43' E 023°41'4 9.7
2018-Apr-23 07:00N 37°47' E 023°38'5 9.6
2018-Apr-23 06:30N 37°51' E 023°36'4 7.2
2018-Apr-23 05:59N 37°54' E 023°33'0 0.1
2018-Apr-23 05:29N 37°54' E 023°33'0 0.0
2018-Apr-23 04:59N 37°54' E 023°33'0 0.0
2018-Apr-23 04:29N 37°54' E 023°33'0 0.0
2018-Apr-23 03:59N 37°54' E 023°33'0 0.2
2018-Apr-23 03:29N 37°54' E 023°33'0 0.0
2018-Apr-23 02:59N 37°54' E 023°33'0 0.1
2018-Apr-23 02:29N 37°54' E 023°33'0 0.0
2018-Apr-23 01:59N 37°54' E 023°33'0 0.1
2018-Apr-23 01:29N 37°54' E 023°33'0 0.0
2018-Apr-23 00:59N 37°54' E 023°33'0 0.1
2018-Apr-23 00:29N 37°54' E 023°33'0 0.0
2018-Apr-22 23:59N 37°54' E 023°33'0 0.1
2018-Apr-22 23:29N 37°54' E 023°33'0 0.1
2018-Apr-22 22:59N 37°54' E 023°33'0 0.0
2018-Apr-22 22:29N 37°54' E 023°33'0 0.1
2018-Apr-22 21:59N 37°54' E 023°33'0 0.2
2018-Apr-22 21:29N 37°54' E 023°33'0 0.0
2018-Apr-22 20:59N 37°54' E 023°33'0 0.0
2018-Apr-22 20:29N 37°54' E 023°33'0 0.1
2018-Apr-22 19:56N 37°54' E 023°33'0 0.0
2018-Apr-22 19:29N 37°54' E 023°33'0 0.1
2018-Apr-22 18:59N 37°54' E 023°33'0 0.0
2018-Apr-22 18:29N 37°54' E 023°33'0 0.0
2018-Apr-22 17:59N 37°54' E 023°33'0 0.1
2018-Apr-22 17:29N 37°54' E 023°33'0 0.0
2018-Apr-22 16:59N 37°54' E 023°33'0 0.0
2018-Apr-22 16:29N 37°54' E 023°33'0 0.0
2018-Apr-22 15:59N 37°54' E 023°33'0 0.0
2018-Apr-22 15:29N 37°54' E 023°33'0 0.0
2018-Apr-22 14:59N 37°54' E 023°33'0 0.0
2018-Apr-22 14:29N 37°54' E 023°33'0 0.0
2018-Apr-22 13:59N 37°54' E 023°33'0 0.0
2018-Apr-22 13:29N 37°54' E 023°33'0 0.0
2018-Apr-22 12:59N 37°54' E 023°33'0 0.1
2018-Apr-22 12:29N 37°54' E 023°33'0 0.0
2018-Apr-22 11:59N 37°54' E 023°33'0 0.2
2018-Apr-22 11:29N 37°54' E 023°33'1 1.7
2018-Apr-22 11:00N 37°54' E 023°34'4 7.4
2018-Apr-22 10:30N 37°51' E 023°37'5 9.4
2018-Apr-22 10:00N 37°48' E 023°41'8 9.5
2018-Apr-22 09:09N 37°40' E 023°46'3 9.3
2018-Apr-22 08:50N 37°38' E 023°49'  

Dump ship's entire track history